createdAt,value
2022-11-05T00:00:19.689Z,22.57
2022-11-05T00:03:05.677Z,22.10
2022-11-05T00:05:51.130Z,25.80
2022-11-05T00:08:36.999Z,24.83
2022-11-05T00:11:04.246Z,22.63
2022-11-05T00:13:49.601Z,22.97
2022-11-05T00:16:35.456Z,21.77
2022-11-05T00:19:09.892Z,23.40
2022-11-05T00:21:57.175Z,21.70
2022-11-05T00:24:43.785Z,21.07
2022-11-05T00:27:11.087Z,22.03
2022-11-05T00:29:38.006Z,21.20
2022-11-05T00:32:05.465Z,20.73
2022-11-05T00:34:32.821Z,20.87
2022-11-05T00:37:00.094Z,21.17
2022-11-05T00:39:27.361Z,21.17
2022-11-05T00:42:13.132Z,22.27
2022-11-05T00:44:59.071Z,21.20
2022-11-05T00:47:44.935Z,19.03
2022-11-05T00:50:12.206Z,20.80
2022-11-05T00:53:00.449Z,21.40
2022-11-05T00:55:28.301Z,20.43
2022-11-05T00:57:56.240Z,21.13
2022-11-05T01:00:25.090Z,20.60
2022-11-05T01:02:52.460Z,20.00
2022-11-05T01:05:19.808Z,21.10
2022-11-05T01:07:47.118Z,22.13
2022-11-05T01:10:14.446Z,22.53
2022-11-05T01:12:41.710Z,21.60
2022-11-05T01:15:09.018Z,20.03
2022-11-05T01:17:36.591Z,20.97
2022-11-05T01:20:04.147Z,19.27
2022-11-05T01:22:31.512Z,19.67
2022-11-05T01:24:58.757Z,20.00
2022-11-05T01:27:26.026Z,23.03
2022-11-05T01:29:52.886Z,19.90
2022-11-05T01:32:20.172Z,18.93
2022-11-05T01:34:47.060Z,19.97
2022-11-05T01:37:14.410Z,20.07
2022-11-05T01:39:41.265Z,21.23
2022-11-05T01:42:18.263Z,20.13
2022-11-05T01:45:17.650Z,20.93
2022-11-05T01:47:50.669Z,19.63
2022-11-05T01:50:32.055Z,19.80
2022-11-05T01:53:27.052Z,21.00
2022-11-05T01:56:00.663Z,19.90
2022-11-05T01:58:32.928Z,20.43
2022-11-05T02:01:00.474Z,21.03
2022-11-05T02:03:28.296Z,20.93
2022-11-05T02:05:57.335Z,18.40
2022-11-05T02:08:52.642Z,21.27
2022-11-05T02:11:20.116Z,19.03
2022-11-05T02:13:48.697Z,20.13
2022-11-05T02:16:52.715Z,21.27
2022-11-05T02:19:53.819Z,21.33
2022-11-05T02:22:42.197Z,19.50
2022-11-05T02:25:40.341Z,20.17
2022-11-05T02:28:36.573Z,18.47
2022-11-05T02:31:28.906Z,19.10
2022-11-05T02:34:37.337Z,18.40
2022-11-05T02:37:17.380Z,16.97
2022-11-05T02:39:51.105Z,17.63
2022-11-05T02:42:49.255Z,17.50
2022-11-05T02:45:37.591Z,20.80
2022-11-05T02:48:23.323Z,23.80
2022-11-05T02:51:00.202Z,22.60
2022-11-05T02:53:44.185Z,23.47
2022-11-05T02:56:29.097Z,20.43
2022-11-05T02:58:56.618Z,23.07
2022-11-05T03:01:24.183Z,23.37
2022-11-05T03:03:57.591Z,23.03
2022-11-05T03:07:59.783Z,23.30
2022-11-05T03:10:43.208Z,23.00
2022-11-05T03:13:23.052Z,24.20
2022-11-05T03:16:15.638Z,20.43
2022-11-05T03:18:58.889Z,20.97
2022-11-05T03:21:36.085Z,19.77
2022-11-05T03:24:13.915Z,20.70
2022-11-05T03:26:50.877Z,20.03
2022-11-05T03:29:28.985Z,20.53
2022-11-05T03:31:59.451Z,20.00
2022-11-05T03:34:32.384Z,21.70
2022-11-05T03:37:02.215Z,20.50
2022-11-05T03:39:33.258Z,20.70
2022-11-05T03:42:02.055Z,21.07
2022-11-05T03:44:34.405Z,21.77
2022-11-05T03:47:06.498Z,21.33
2022-11-05T03:49:40.183Z,20.80
2022-11-05T03:52:24.470Z,18.80
2022-11-05T03:54:52.216Z,20.50
2022-11-05T03:57:29.459Z,22.07
2022-11-05T03:59:56.517Z,21.10
2022-11-05T04:02:26.657Z,22.03
2022-11-05T04:04:54.838Z,29.13
2022-11-05T04:07:42.373Z,20.43
2022-11-05T04:10:28.664Z,21.50
2022-11-05T04:13:14.867Z,20.80
2022-11-05T04:16:00.628Z,22.90
2022-11-05T04:18:27.921Z,23.03
2022-11-05T04:21:13.729Z,21.30
2022-11-05T04:23:59.545Z,23.03
2022-11-05T04:26:26.809Z,23.27
2022-11-05T04:29:12.848Z,26.00
2022-11-05T04:31:40.103Z,25.47
2022-11-05T04:34:07.416Z,24.07
2022-11-05T04:36:34.679Z,23.67
2022-11-05T04:39:01.949Z,23.93
2022-11-05T04:41:29.269Z,22.63
2022-11-05T04:43:56.168Z,23.40
2022-11-05T04:46:23.567Z,49.30
2022-11-05T04:48:50.860Z,28.93
2022-11-05T04:51:18.149Z,25.87
2022-11-05T04:53:45.411Z,27.93
2022-11-05T04:56:21.488Z,27.27
2022-11-05T04:58:48.761Z,29.87
2022-11-05T05:01:18.133Z,34.90
2022-11-05T05:03:47.665Z,26.57
2022-11-05T05:06:14.755Z,25.37
2022-11-05T05:08:42.027Z,27.37
2022-11-05T05:11:12.290Z,24.20
2022-11-05T05:13:39.591Z,34.40
2022-11-05T05:16:08.489Z,25.33
2022-11-05T05:18:35.970Z,24.47
2022-11-05T05:21:22.365Z,22.30
2022-11-05T05:23:49.669Z,25.53
2022-11-05T05:26:16.840Z,25.17
2022-11-05T05:28:44.116Z,24.47
2022-11-05T05:31:11.453Z,25.73
2022-11-05T05:33:38.726Z,24.17
2022-11-05T05:36:11.173Z,24.27
2022-11-05T05:38:38.876Z,25.57
2022-11-05T05:41:06.256Z,25.50
2022-11-05T05:43:33.883Z,26.00
2022-11-05T05:46:08.526Z,27.20
2022-11-05T05:48:35.891Z,23.90
2022-11-05T05:51:05.078Z,27.17
2022-11-05T05:53:32.337Z,30.30
2022-11-05T05:55:59.868Z,33.97
2022-11-05T05:58:33.270Z,31.10
2022-11-05T06:01:02.490Z,30.10
2022-11-05T06:03:29.849Z,29.87
2022-11-05T06:06:05.546Z,33.03
2022-11-05T06:08:32.850Z,33.17
2022-11-05T06:11:00.791Z,45.47
2022-11-05T06:13:28.582Z,63.97
2022-11-05T06:16:04.009Z,28.97
2022-11-05T06:18:31.573Z,29.07
2022-11-05T06:21:07.093Z,65.97
2022-11-05T06:23:35.801Z,32.33
2022-11-05T06:26:07.220Z,29.13
2022-11-05T06:28:35.247Z,33.87
2022-11-05T06:31:02.741Z,51.43
2022-11-05T06:33:29.942Z,34.57
2022-11-05T06:36:01.089Z,33.90
2022-11-05T06:38:29.444Z,32.93
2022-11-05T06:40:59.330Z,31.50
2022-11-05T06:43:27.542Z,29.90
2022-11-05T06:45:55.562Z,29.03
2022-11-05T06:48:23.022Z,35.03
2022-11-05T06:50:50.313Z,33.80
2022-11-05T06:53:17.771Z,35.90
2022-11-05T06:55:45.071Z,38.67
2022-11-05T06:58:12.418Z,35.77
2022-11-05T07:00:39.845Z,36.53
2022-11-05T07:03:08.643Z,33.70
2022-11-05T07:05:39.764Z,34.47
2022-11-05T07:08:07.117Z,49.27
2022-11-05T07:10:34.405Z,33.03
2022-11-05T07:13:05.128Z,33.50
2022-11-05T07:15:34.940Z,33.23
2022-11-05T07:18:02.690Z,33.07
2022-11-05T07:20:33.822Z,31.00
2022-11-05T07:23:06.122Z,33.17
2022-11-05T07:25:34.057Z,33.83
2022-11-05T07:28:01.974Z,33.03
2022-11-05T07:30:29.412Z,33.43
2022-11-05T07:32:56.793Z,33.23
2022-11-05T07:35:24.043Z,34.83
2022-11-05T07:37:53.999Z,36.07
2022-11-05T07:40:22.166Z,32.93
2022-11-05T07:42:53.697Z,34.03
2022-11-05T07:45:21.357Z,35.80
2022-11-05T07:47:49.625Z,37.53
2022-11-05T07:50:17.895Z,36.27
2022-11-05T07:52:45.221Z,38.00
2022-11-05T07:55:13.266Z,33.83
2022-11-05T07:57:44.187Z,35.30
2022-11-05T08:00:13.488Z,37.03
2022-11-05T08:02:41.333Z,38.53
2022-11-05T08:05:09.443Z,35.03
2022-11-05T08:07:36.771Z,37.57
2022-11-05T08:10:04.311Z,37.90
2022-11-05T08:12:33.625Z,38.93
2022-11-05T08:15:00.487Z,37.10
2022-11-05T08:17:27.399Z,37.63
2022-11-05T08:19:54.726Z,37.53
2022-11-05T08:22:22.110Z,35.07
2022-11-05T08:24:49.415Z,35.77
2022-11-05T08:27:16.701Z,35.43
2022-11-05T08:29:43.957Z,37.30
2022-11-05T08:32:11.210Z,35.50
2022-11-05T08:34:38.510Z,36.70
2022-11-05T08:37:05.819Z,35.60
2022-11-05T08:39:33.194Z,34.37
2022-11-05T08:42:00.579Z,32.47
2022-11-05T08:44:27.865Z,34.53
2022-11-05T08:46:55.492Z,33.00
2022-11-05T08:49:22.707Z,34.87
2022-11-05T08:51:50.022Z,31.07
2022-11-05T08:54:17.352Z,32.33
2022-11-05T08:56:44.851Z,32.07
2022-11-05T08:59:11.702Z,32.57
2022-11-05T09:01:39.063Z,32.03
2022-11-05T09:04:06.432Z,33.30
2022-11-05T09:06:33.712Z,31.57
2022-11-05T09:09:00.965Z,31.40
2022-11-05T09:11:49.673Z,30.70
2022-11-05T09:14:15.486Z,31.93
2022-11-05T09:16:42.679Z,31.07
2022-11-05T09:19:10.250Z,34.03
2022-11-05T09:21:37.499Z,32.40
2022-11-05T09:24:04.840Z,34.87
2022-11-05T09:26:32.096Z,37.23
2022-11-05T09:28:59.347Z,34.30
2022-11-05T09:31:26.618Z,37.87
2022-11-05T09:33:53.570Z,39.13
2022-11-05T09:36:20.877Z,41.73
2022-11-05T09:38:48.182Z,44.80
2022-11-05T09:41:29.064Z,42.77
2022-11-05T09:44:24.814Z,46.67
2022-11-05T09:46:59.337Z,47.33
2022-11-05T09:49:39.738Z,50.33
2022-11-05T09:52:15.158Z,45.53
2022-11-05T09:54:42.425Z,47.73
2022-11-05T09:57:16.238Z,47.10
2022-11-05T09:59:57.732Z,48.23
2022-11-05T10:02:30.142Z,47.57
2022-11-05T10:05:08.121Z,48.13
2022-11-05T10:07:43.479Z,49.13
2022-11-05T10:10:40.556Z,46.03
2022-11-05T10:13:32.344Z,46.73
2022-11-05T10:16:18.085Z,48.83
2022-11-05T10:18:48.923Z,48.90
2022-11-05T10:21:32.261Z,49.93
2022-11-05T10:24:23.173Z,47.73
2022-11-05T10:26:52.885Z,43.33
2022-11-05T10:29:29.174Z,45.97
2022-11-05T10:32:01.137Z,44.40
2022-11-05T10:34:33.018Z,43.57
2022-11-05T10:37:00.433Z,38.90
2022-11-05T10:39:27.989Z,39.83
2022-11-05T10:41:55.228Z,36.70
2022-11-05T10:44:30.997Z,32.60
2022-11-05T10:47:41.169Z,31.90
2022-11-05T10:50:17.973Z,32.43
2022-11-05T10:53:03.419Z,30.90
2022-11-05T10:55:34.557Z,31.47
2022-11-05T10:58:17.871Z,31.37
2022-11-05T11:01:06.935Z,29.30
2022-11-05T11:04:03.729Z,29.33
2022-11-05T11:06:34.577Z,28.30
2022-11-05T11:09:05.766Z,27.73
2022-11-05T11:11:35.822Z,29.00
2022-11-05T11:14:19.710Z,28.10
2022-11-05T11:16:50.319Z,26.53
2022-11-05T11:19:23.309Z,23.93
2022-11-05T11:22:13.367Z,23.77
2022-11-05T11:24:47.686Z,22.63
2022-11-05T11:27:20.432Z,21.10
2022-11-05T11:29:59.358Z,20.40
2022-11-05T11:32:33.069Z,18.33
2022-11-05T11:35:01.117Z,18.93
2022-11-05T11:37:28.367Z,16.00
2022-11-05T11:40:02.023Z,15.67
2022-11-05T11:42:33.923Z,16.20
2022-11-05T11:45:24.082Z,12.80
2022-11-05T11:47:51.478Z,14.17
2022-11-05T11:50:41.010Z,13.07
2022-11-05T11:53:20.192Z,11.17
2022-11-05T11:56:00.456Z,11.27
2022-11-05T11:58:45.738Z,9.90
2022-11-05T12:01:15.671Z,10.17
2022-11-05T12:03:57.635Z,10.20
2022-11-05T12:06:24.904Z,8.97
2022-11-05T12:09:03.412Z,8.50
2022-11-05T12:11:55.619Z,7.30
2022-11-05T12:15:01.279Z,6.90
2022-11-05T12:18:03.434Z,7.03
2022-11-05T12:20:36.106Z,6.17
2022-11-05T12:23:03.452Z,7.17
2022-11-05T12:25:30.737Z,6.70
2022-11-05T12:28:19.583Z,5.90
2022-11-05T12:30:57.589Z,6.70
2022-11-05T12:33:46.493Z,6.53
2022-11-05T12:36:16.041Z,7.57
2022-11-05T12:39:22.468Z,13.67
2022-11-05T12:41:49.726Z,6.43
2022-11-05T12:44:35.099Z,5.57
2022-11-05T12:47:36.972Z,6.57
2022-11-05T12:50:21.742Z,7.03
2022-11-05T12:53:03.912Z,5.93
2022-11-05T12:55:41.775Z,7.27
2022-11-05T12:58:23.544Z,6.97
2022-11-05T13:00:57.612Z,6.10
2022-11-05T13:03:43.786Z,6.63
2022-11-05T13:06:15.048Z,6.27
2022-11-05T13:09:03.285Z,8.53
2022-11-05T13:11:37.651Z,9.80
2022-11-05T13:14:39.820Z,6.90
2022-11-05T13:17:11.187Z,6.83
2022-11-05T13:19:58.721Z,6.73
2022-11-05T13:22:35.627Z,6.73
2022-11-05T13:25:36.693Z,8.13
2022-11-05T13:28:23.916Z,8.13
2022-11-05T13:30:53.795Z,6.50
2022-11-05T13:33:25.205Z,6.03
2022-11-05T13:36:17.018Z,7.00
2022-11-05T13:39:03.493Z,7.03
2022-11-05T13:41:54.778Z,7.33
2022-11-05T13:44:27.720Z,6.97
2022-11-05T13:47:24.290Z,6.27
2022-11-05T13:50:08.994Z,7.22
2022-11-05T13:52:51.591Z,6.90
2022-11-05T13:55:55.928Z,10.33
2022-11-05T13:58:47.554Z,7.83
2022-11-05T14:01:43.644Z,7.40
2022-11-05T14:04:36.992Z,6.17
2022-11-05T14:07:36.702Z,7.70
2022-11-05T14:10:36.548Z,6.17
2022-11-05T14:13:15.641Z,7.40
2022-11-05T14:15:57.651Z,8.73
2022-11-05T14:18:25.328Z,9.97
2022-11-05T14:21:01.514Z,7.10
2022-11-05T14:23:39.024Z,7.73
2022-11-05T14:26:12.438Z,6.90
2022-11-05T14:28:48.559Z,6.47
2022-11-05T14:31:18.580Z,8.40
2022-11-05T14:34:02.346Z,8.03
2022-11-05T14:36:35.755Z,7.17
2022-11-05T14:39:29.003Z,6.50
2022-11-05T14:42:14.851Z,7.03
2022-11-05T14:45:08.203Z,8.07
2022-11-05T14:47:40.591Z,6.87
2022-11-05T14:50:21.842Z,7.27
2022-11-05T14:52:54.410Z,10.47
2022-11-05T14:55:42.573Z,7.87
2022-11-05T14:58:32.531Z,10.57
2022-11-05T15:01:01.267Z,6.40
2022-11-05T15:03:55.869Z,7.03
2022-11-05T15:06:31.250Z,6.47
2022-11-05T15:09:08.271Z,6.50
2022-11-05T15:11:42.876Z,5.87
2022-11-05T15:14:35.783Z,7.13
2022-11-05T15:17:23.220Z,6.67
2022-11-05T15:19:52.084Z,6.23
2022-11-05T15:22:30.868Z,6.13
2022-11-05T15:24:58.364Z,6.43
2022-11-05T15:27:40.871Z,7.10
2022-11-05T15:30:19.815Z,7.10
2022-11-05T15:32:47.108Z,4.73
2022-11-05T15:35:39.038Z,6.63
2022-11-05T15:38:22.846Z,5.63
2022-11-05T15:40:57.379Z,5.73
2022-11-05T15:43:24.630Z,7.27
2022-11-05T15:46:13.482Z,6.77
2022-11-05T15:48:40.916Z,6.93
2022-11-05T15:51:10.140Z,6.10
2022-11-05T15:54:23.766Z,6.47
2022-11-05T15:56:55.093Z,6.83
2022-11-05T15:59:24.388Z,7.10
2022-11-05T16:01:56.633Z,6.27
2022-11-05T16:04:30.591Z,6.73
2022-11-05T16:07:01.051Z,6.50
2022-11-05T16:09:33.492Z,6.43
2022-11-05T16:12:18.765Z,6.13
2022-11-05T16:15:00.895Z,6.57
2022-11-05T16:17:32.126Z,6.13
2022-11-05T16:19:59.803Z,9.77
2022-11-05T16:22:44.798Z,7.67
2022-11-05T16:25:36.563Z,6.57
2022-11-05T16:28:05.623Z,5.80
2022-11-05T16:30:32.944Z,7.83
2022-11-05T16:33:06.174Z,6.77
2022-11-05T16:35:33.322Z,6.03
2022-11-05T16:38:01.883Z,6.80
2022-11-05T16:40:29.419Z,6.23
2022-11-05T16:43:18.753Z,5.70
2022-11-05T16:45:46.105Z,6.73
2022-11-05T16:48:14.477Z,8.07
2022-11-05T16:50:42.335Z,6.17
2022-11-05T16:53:09.686Z,7.67
2022-11-05T16:55:38.900Z,6.80
2022-11-05T16:58:07.371Z,6.93
2022-11-05T17:00:35.228Z,6.47
2022-11-05T17:03:04.091Z,7.07
2022-11-05T17:05:32.008Z,6.57
2022-11-05T17:08:01.150Z,6.80
2022-11-05T17:10:28.054Z,7.47
2022-11-05T17:12:55.498Z,6.83
2022-11-05T17:15:25.455Z,6.43
2022-11-05T17:17:54.117Z,6.03
2022-11-05T17:20:43.045Z,6.73
2022-11-05T17:23:20.120Z,6.70
2022-11-05T17:25:52.785Z,7.27
2022-11-05T17:28:20.237Z,6.37
2022-11-05T17:30:54.007Z,7.17
2022-11-05T17:33:22.926Z,7.63
2022-11-05T17:35:50.582Z,6.70
2022-11-05T17:38:17.729Z,6.07
2022-11-05T17:40:45.194Z,7.23
2022-11-05T17:43:13.059Z,5.80
2022-11-05T17:45:46.378Z,5.43
2022-11-05T17:48:14.114Z,6.27
2022-11-05T17:50:46.421Z,6.20
2022-11-05T17:53:15.185Z,6.67
2022-11-05T17:55:43.744Z,6.07
2022-11-05T17:58:11.200Z,5.87
2022-11-05T18:00:39.613Z,6.07
2022-11-05T18:03:07.032Z,5.83
2022-11-05T18:05:34.482Z,5.70
2022-11-05T18:08:02.108Z,5.73
2022-11-05T18:10:29.418Z,5.40
2022-11-05T18:12:56.791Z,6.33
2022-11-05T18:15:24.103Z,6.03
2022-11-05T18:17:51.427Z,5.03
2022-11-05T18:20:19.573Z,4.87
2022-11-05T18:22:49.608Z,5.63
2022-11-05T18:25:17.966Z,5.77
2022-11-05T18:27:45.317Z,5.53
2022-11-05T18:30:15.333Z,5.37
2022-11-05T18:32:44.044Z,5.40
2022-11-05T18:35:11.515Z,5.47
2022-11-05T18:37:40.480Z,5.47
2022-11-05T18:40:08.015Z,6.23
2022-11-05T18:42:35.349Z,5.80
2022-11-05T18:45:02.802Z,5.20
2022-11-05T18:47:32.445Z,5.20
2022-11-05T18:50:00.191Z,5.67
2022-11-05T18:52:28.359Z,4.83
2022-11-05T18:54:55.642Z,4.80
2022-11-05T18:57:23.010Z,4.50
2022-11-05T18:59:50.426Z,4.83
2022-11-05T19:02:18.099Z,6.80
2022-11-05T19:05:00.700Z,5.67
2022-11-05T19:07:36.833Z,5.03
2022-11-05T19:10:04.695Z,4.80
2022-11-05T19:12:32.004Z,4.90
2022-11-05T19:15:02.380Z,5.97
2022-11-05T19:17:30.833Z,5.57
2022-11-05T19:19:58.358Z,4.60
2022-11-05T19:22:26.120Z,4.33
2022-11-05T19:24:53.291Z,5.00
2022-11-05T19:27:20.737Z,5.23
2022-11-05T19:29:48.410Z,5.40
2022-11-05T19:32:16.016Z,4.60
2022-11-05T19:34:43.376Z,4.73
2022-11-05T19:37:12.296Z,4.10
2022-11-05T19:39:41.100Z,4.60
2022-11-05T19:42:08.003Z,4.00
2022-11-05T19:44:35.402Z,4.53
2022-11-05T19:47:02.762Z,4.67
2022-11-05T19:49:30.059Z,3.60
2022-11-05T19:51:57.381Z,4.10
2022-11-05T19:54:24.699Z,4.17
2022-11-05T19:56:52.298Z,4.87
2022-11-05T19:59:19.430Z,5.13
2022-11-05T20:01:46.719Z,4.17
2022-11-05T20:04:14.279Z,3.80
2022-11-05T20:06:41.802Z,3.57
2022-11-05T20:09:27.431Z,4.23
2022-11-05T20:11:56.393Z,4.13
2022-11-05T20:14:24.877Z,4.23
2022-11-05T20:16:52.427Z,5.87
2022-11-05T20:19:21.063Z,4.77
2022-11-05T20:21:48.801Z,3.83
2022-11-05T20:24:24.177Z,7.23
2022-11-05T20:26:53.719Z,4.30
2022-11-05T20:29:21.453Z,4.50
2022-11-05T20:31:48.920Z,4.07
2022-11-05T20:34:16.393Z,4.00
2022-11-05T20:36:43.845Z,4.70
2022-11-05T20:39:11.960Z,3.43
2022-11-05T20:41:39.449Z,4.23
2022-11-05T20:44:06.870Z,4.37
2022-11-05T20:46:34.000Z,4.50
2022-11-05T20:49:00.998Z,4.67
2022-11-05T20:51:28.391Z,4.37
2022-11-05T20:53:57.156Z,4.27
2022-11-05T20:56:26.713Z,4.50
2022-11-05T20:58:53.848Z,4.50
2022-11-05T21:01:21.688Z,4.70
2022-11-05T21:03:49.146Z,4.53
2022-11-05T21:06:17.043Z,4.00
2022-11-05T21:08:46.613Z,4.50
2022-11-05T21:11:14.008Z,4.37
2022-11-05T21:13:41.698Z,4.13
2022-11-05T21:16:12.875Z,4.97
2022-11-05T21:18:44.509Z,4.50
2022-11-05T21:21:14.657Z,4.37
2022-11-05T21:23:42.216Z,5.07
2022-11-05T21:26:12.783Z,4.77
2022-11-05T21:28:41.475Z,4.37
2022-11-05T21:31:09.412Z,4.77
2022-11-05T21:33:36.809Z,4.93
2022-11-05T21:36:09.525Z,4.70
2022-11-05T21:38:36.923Z,4.90
2022-11-05T21:41:04.707Z,5.10
2022-11-05T21:43:32.213Z,4.70
2022-11-05T21:46:03.845Z,5.03
2022-11-05T21:48:31.393Z,5.00
2022-11-05T21:51:16.991Z,5.25
2022-11-05T21:54:02.367Z,5.20
2022-11-05T21:56:48.430Z,5.67
2022-11-05T21:59:37.090Z,5.37
2022-11-05T22:02:05.328Z,5.40
2022-11-05T22:04:35.476Z,5.50
2022-11-05T22:07:03.716Z,5.73
2022-11-05T22:09:31.077Z,4.83
2022-11-05T22:11:58.915Z,5.37
2022-11-05T22:14:26.753Z,5.37
2022-11-05T22:16:54.204Z,5.10
2022-11-05T22:19:21.905Z,5.47
2022-11-05T22:21:49.344Z,5.07
2022-11-05T22:24:17.302Z,5.67
2022-11-05T22:26:44.926Z,5.17
2022-11-05T22:29:12.909Z,6.13
2022-11-05T22:31:40.309Z,6.87
2022-11-05T22:34:08.159Z,5.70
2022-11-05T22:36:35.668Z,5.77
2022-11-05T22:39:04.670Z,5.37
2022-11-05T22:41:32.337Z,5.73
2022-11-05T22:43:59.467Z,5.73
2022-11-05T22:46:27.419Z,6.37
2022-11-05T22:48:56.034Z,5.73
2022-11-05T22:51:31.742Z,5.67
2022-11-05T22:53:59.632Z,6.03
2022-11-05T22:56:29.649Z,5.83
2022-11-05T22:58:57.184Z,5.73
2022-11-05T23:01:26.158Z,6.23
2022-11-05T23:03:56.169Z,5.43
2022-11-05T23:06:47.326Z,5.77
2022-11-05T23:09:33.279Z,5.90
2022-11-05T23:12:01.014Z,5.80
2022-11-05T23:14:28.705Z,5.53
2022-11-05T23:17:14.883Z,6.03
2022-11-05T23:20:00.522Z,5.87
2022-11-05T23:22:48.550Z,5.90
2022-11-05T23:25:21.994Z,5.93
2022-11-05T23:27:51.858Z,5.57
2022-11-05T23:30:24.749Z,6.03
2022-11-05T23:32:52.776Z,5.73
2022-11-05T23:35:40.215Z,5.93
2022-11-05T23:38:25.583Z,5.63
2022-11-05T23:41:11.142Z,6.87
2022-11-05T23:43:57.104Z,5.50
2022-11-05T23:46:43.078Z,5.63
2022-11-05T23:49:10.469Z,6.60
2022-11-05T23:51:37.857Z,5.13
2022-11-05T23:54:05.294Z,6.10
2022-11-05T23:56:32.921Z,5.80
2022-11-05T23:58:59.925Z,6.23
